Time;durP1;ratioP1;P1;durP2;ratioP2;P2;SDS_P1;SDS_P2;PMS_P1;PMS_P2;Temp;Humidity;BMP_temperature;BMP_pressure;BME280_temperature;BME280_humidity;BME280_pressure;Samples;Min_cycle;Max_cycle;Signal;HPM_P1;HPM_P2
2023/08/21 00:02:27;;;;;;;17.98;10.73;;;;;21.60;96899.00;;;;8374593;28;20971;-65
2023/08/21 00:06:31;;;;;;;13.95;10.10;;;;;21.60;96899.00;;;;8372399;28;20201;-65
2023/08/21 00:10:38;;;;;;;14.35;10.73;;;;;21.60;96898.00;;;;8367838;28;20293;-65
2023/08/21 00:14:42;;;;;;;17.98;10.07;;;;;21.60;96901.00;;;;8359668;28;20251;-65
2023/08/21 00:18:48;;;;;;;12.50;10.13;;;;;21.50;96894.00;;;;8371458;28;20299;-65
2023/08/21 00:22:54;;;;;;;14.77;10.98;;;;;21.50;96889.00;;;;8376577;28;20315;-65
2023/08/21 00:26:59;;;;;;;15.55;11.63;;;;;21.50;96888.00;;;;8374805;28;20203;-65
2023/08/21 00:31:04;;;;;;;15.57;11.25;;;;;21.40;96891.00;;;;8372061;28;20228;-65
2023/08/21 00:35:08;;;;;;;15.20;10.52;;;;;21.30;96890.00;;;;8365313;28;20290;-65
2023/08/21 00:39:11;;;;;;;19.35;11.27;;;;;21.30;96881.00;;;;8379722;28;20672;-65
2023/08/21 00:43:21;;;;;;;17.80;10.85;;;;;21.20;96883.00;;;;8375788;28;20307;-64
2023/08/21 00:47:24;;;;;;;16.08;10.77;;;;;21.10;96880.00;;;;8377045;28;20227;-65
2023/08/21 00:51:28;;;;;;;16.17;11.90;;;;;21.00;96885.00;;;;8363855;28;20546;-65
2023/08/21 00:55:32;;;;;;;16.05;11.10;;;;;21.00;96876.00;;;;8376376;28;20235;-65
2023/08/21 00:59:37;;;;;;;14.63;11.25;;;;;20.90;96882.00;;;;8368907;28;20701;-65
2023/08/21 01:03:41;;;;;;;14.90;11.63;;;;;20.80;96881.00;;;;8374501;28;20266;-67
2023/08/21 01:07:53;;;;;;;20.65;11.82;;;;;20.70;96882.00;;;;8379193;28;20864;-67
2023/08/21 01:12:04;;;;;;;16.63;11.60;;;;;20.70;96890.00;;;;8375153;28;20295;-66
2023/08/21 01:16:12;;;;;;;18.20;11.30;;;;;20.70;96887.00;;;;8363040;28;20744;-67
2023/08/21 01:20:16;;;;;;;16.33;12.25;;;;;20.60;96891.00;;;;8378333;28;20879;-67
2023/08/21 01:24:24;;;;;;;24.48;12.80;;;;;20.50;96897.00;;;;8379273;28;20303;-66
2023/08/21 01:28:27;;;;;;;22.15;12.45;;;;;20.50;96896.00;;;;8374020;28;20192;-66
2023/08/21 01:32:53;;;;;;;24.90;12.93;;;;;20.50;96897.00;;;;8371856;28;20334;-66
2023/08/21 01:36:57;;;;;;;17.45;12.02;;;;;20.60;96888.00;;;;8374439;28;20207;-67
2023/08/21 01:41:02;;;;;;;17.15;11.60;;;;;20.70;96890.00;;;;8354055;28;20234;-66
2023/08/21 01:45:07;;;;;;;18.98;12.52;;;;;20.70;96888.00;;;;8372336;28;20222;-66
2023/08/21 01:49:11;;;;;;;19.15;12.48;;;;;20.80;96892.00;;;;8375757;28;20694;-67
2023/08/21 01:53:16;;;;;;;15.27;12.30;;;;;20.80;96895.00;;;;8378129;28;20291;-66
2023/08/21 01:57:21;;;;;;;14.68;11.38;;;;;20.80;96884.00;;;;8375930;28;20224;-67
2023/08/21 02:01:26;;;;;;;17.58;11.10;;;;;20.90;96887.00;;;;8375976;28;20232;-66
2023/08/21 02:05:30;;;;;;;17.02;11.82;;;;;20.80;96884.00;;;;8374877;28;20196;-67
2023/08/21 02:09:34;;;;;;;18.45;12.30;;;;;20.80;96889.00;;;;8374859;28;20207;-66
2023/08/21 02:13:43;;;;;;;17.02;12.27;;;;;20.80;96885.00;;;;8372985;28;20192;-66
2023/08/21 02:17:48;;;;;;;19.70;12.05;;;;;20.80;96890.00;;;;8371372;28;20762;-66
2023/08/21 02:21:51;;;;;;;18.10;11.68;;;;;20.90;96887.00;;;;8357962;28;20223;-67
2023/08/21 02:25:57;;;;;;;18.63;11.20;;;;;20.90;96890.00;;;;8376298;28;20628;-67
2023/08/21 02:30:01;;;;;;;15.65;11.88;;;;;20.90;96887.00;;;;8360893;28;20230;-66
2023/08/21 02:34:04;;;;;;;17.50;11.60;;;;;20.90;96893.00;;;;8374883;28;20226;-67
2023/08/21 02:38:08;;;;;;;16.05;11.60;;;;;21.00;96891.00;;;;8378461;28;20291;-67
2023/08/21 02:42:14;;;;;;;15.55;11.50;;;;;21.00;96898.00;;;;8381849;28;20255;-66
2023/08/21 02:46:19;;;;;;;14.02;10.68;;;;;21.10;96893.00;;;;8381778;28;20602;-66
2023/08/21 02:50:22;;;;;;;18.52;11.50;;;;;21.20;96894.00;;;;8381258;28;20200;-66
2023/08/21 02:54:27;;;;;;;15.50;11.45;;;;;21.20;96891.00;;;;8384664;28;20288;-66
2023/08/21 02:58:30;;;;;;;17.42;11.52;;;;;21.20;96893.00;;;;8379411;28;20778;-67
2023/08/21 03:02:34;;;;;;;13.95;11.27;;;;;21.20;96884.00;;;;8406146;22;20812;-67
2023/08/21 03:06:38;;;;;;;17.63;11.05;;;;;21.30;96887.00;;;;8307007;28;20256;-66
2023/08/21 03:10:41;;;;;;;15.82;10.93;;;;;21.30;96893.00;;;;8302535;28;20706;-66
2023/08/21 03:14:46;;;;;;;14.07;11.32;;;;;21.40;96892.00;;;;8303255;28;20208;-66
2023/08/21 03:18:58;;;;;;;15.57;10.68;;;;;21.40;96894.00;;;;8316710;28;20778;-66
2023/08/21 03:23:01;;;;;;;16.75;10.77;;;;;21.50;96891.00;;;;8301595;28;20348;-66
2023/08/21 03:27:08;;;;;;;19.52;11.65;;;;;21.50;96882.00;;;;8309998;28;20221;-66
2023/08/21 03:31:11;;;;;;;17.55;11.93;;;;;21.40;96880.00;;;;8301900;28;20252;-67
2023/08/21 03:35:19;;;;;;;14.82;10.88;;;;;21.40;96885.00;;;;8302150;28;20200;-66
2023/08/21 03:39:22;;;;;;;15.35;11.27;;;;;21.40;96878.00;;;;8312624;28;20205;-65
2023/08/21 03:43:25;;;;;;;18.17;11.05;;;;;21.30;96872.00;;;;8313735;28;20239;-66
2023/08/21 03:47:31;;;;;;;15.25;11.68;;;;;21.30;96875.00;;;;8303642;28;20205;-65
2023/08/21 03:51:36;;;;;;;16.75;12.02;;;;;21.20;96878.00;;;;8311723;28;20329;-66
2023/08/21 03:55:39;;;;;;;15.52;10.50;;;;;21.10;96879.00;;;;8305454;28;20205;-67
2023/08/21 03:59:43;;;;;;;17.38;11.38;;;;;21.00;96880.00;;;;8314524;28;20260;-65
2023/08/21 04:03:46;;;;;;;20.27;11.73;;;;;20.90;96882.00;;;;8329427;28;20232;-66
2023/08/21 04:07:50;;;;;;;17.95;12.55;;;;;20.80;96876.00;;;;8330143;28;20251;-65
2023/08/21 04:11:53;;;;;;;17.33;12.02;;;;;20.70;96885.00;;;;8326751;28;20196;-67
2023/08/21 04:15:59;;;;;;;17.52;11.57;;;;;20.70;96885.00;;;;8330081;28;20197;-66
2023/08/21 04:20:02;;;;;;;17.95;11.98;;;;;20.60;96890.00;;;;8333001;28;20251;-65
2023/08/21 04:24:07;;;;;;;16.30;11.85;;;;;20.60;96888.00;;;;8337217;28;20264;-66
2023/08/21 04:28:10;;;;;;;15.77;11.13;;;;;20.60;96895.00;;;;8333185;28;20617;-66
2023/08/21 04:32:16;;;;;;;15.90;12.13;;;;;20.50;96886.00;;;;8334142;28;20883;-65
2023/08/21 04:36:20;;;;;;;16.80;11.63;;;;;20.40;96884.00;;;;8334280;28;20220;-66
2023/08/21 04:40:27;;;;;;;25.20;12.75;;;;;20.40;96879.00;;;;8332652;28;20232;-66
2023/08/21 04:44:31;;;;;;;17.83;12.23;;;;;20.50;96883.00;;;;8337282;28;20192;-66
2023/08/21 04:48:36;;;;;;;18.08;12.65;;;;;20.50;96881.00;;;;8342421;28;20320;-66
2023/08/21 04:52:39;;;;;;;19.73;12.23;;;;;20.50;96888.00;;;;8331612;28;20801;-65
2023/08/21 04:56:43;;;;;;;16.90;12.63;;;;;20.50;96880.00;;;;8328603;28;20254;-65
2023/08/21 05:00:54;;;;;;;18.52;13.13;;;;;20.50;96892.00;;;;8330777;28;20750;-66
2023/08/21 05:05:00;;;;;;;20.13;12.40;;;;;20.60;96891.00;;;;8320980;28;20232;-65
2023/08/21 05:09:06;;;;;;;17.50;12.27;;;;;20.70;96891.00;;;;8329066;28;20201;-66
2023/08/21 05:13:11;;;;;;;15.02;11.82;;;;;20.80;96891.00;;;;8331421;28;20219;-65
2023/08/21 05:17:17;;;;;;;20.17;11.60;;;;;21.00;96894.00;;;;8329551;28;20761;-66
2023/08/21 05:21:20;;;;;;;15.85;12.18;;;;;21.20;96907.00;;;;8336194;28;20315;-66
2023/08/21 05:25:26;;;;;;;13.85;10.77;;;;;21.40;96907.00;;;;8329504;28;20592;-65
2023/08/21 05:29:31;;;;;;;17.13;11.60;;;;;21.60;96899.00;;;;8338953;28;20203;-66
2023/08/21 05:33:35;;;;;;;14.05;11.15;;;;;22.00;96897.00;;;;8332979;28;20209;-66
2023/08/21 05:37:38;;;;;;;14.05;11.18;;;;;22.30;96906.00;;;;8326894;28;20224;-66
2023/08/21 05:41:47;;;;;;;15.98;11.48;;;;;22.60;96912.00;;;;8330892;28;20267;-66
2023/08/21 05:45:51;;;;;;;14.10;10.55;;;;;22.80;96904.00;;;;8323152;28;20613;-66
2023/08/21 05:49:56;;;;;;;15.82;10.48;;;;;23.00;96911.00;;;;8320987;28;20300;-66
2023/08/21 05:54:04;;;;;;;16.00;11.40;;;;;23.30;96909.00;;;;8331506;28;20710;-67
2023/08/21 05:58:12;;;;;;;16.48;11.35;;;;;23.50;96911.00;;;;8335757;28;20654;-66
2023/08/21 06:02:19;;;;;;;13.50;10.13;;;;;23.70;96919.00;;;;8325831;28;20587;-67
2023/08/21 06:06:22;;;;;;;14.20;9.93;;;;;23.90;96922.00;;;;8330142;28;20232;-67
2023/08/21 06:10:25;;;;;;;22.42;10.15;;;;;24.20;96925.00;;;;8326863;28;20283;-67
2023/08/21 06:14:33;;;;;;;12.63;9.57;;;;;24.50;96932.00;;;;8331364;28;20701;-67
2023/08/21 06:18:38;;;;;;;13.82;9.70;;;;;24.70;96929.00;;;;8336222;28;20209;-66
2023/08/21 06:22:44;;;;;;;11.55;9.60;;;;;24.90;96940.00;;;;8334943;28;20753;-66
2023/08/21 06:26:51;;;;;;;10.73;9.10;;;;;25.10;96946.00;;;;8337708;28;20213;-65
2023/08/21 06:30:57;;;;;;;12.65;9.27;;;;;25.50;96944.00;;;;8331210;28;20658;-64
2023/08/21 06:35:04;;;;;;;17.70;10.05;;;;;25.80;96950.00;;;;8333867;28;20642;-64
2023/08/21 06:39:07;;;;;;;13.00;9.80;;;;;26.10;96944.00;;;;8337186;28;20212;-64
2023/08/21 06:43:13;;;;;;;21.23;10.52;;;;;26.30;96937.00;;;;8334262;28;20235;-66
2023/08/21 06:47:16;;;;;;;15.55;10.05;;;;;26.60;96938.00;;;;8334868;28;20196;-66
2023/08/21 06:51:24;;;;;;;13.65;10.45;;;;;26.80;96942.00;;;;8333438;28;20538;-64
2023/08/21 06:55:27;;;;;;;14.60;10.63;;;;;27.10;96930.00;;;;8321562;28;20685;-63
2023/08/21 06:59:35;;;;;;;12.35;9.75;;;;;27.20;96932.00;;;;8341602;28;20317;-63
2023/08/21 07:03:39;;;;;;;16.42;11.50;;;;;27.40;96935.00;;;;8332839;28;20295;-64
2023/08/21 07:07:43;;;;;;;14.27;9.77;;;;;27.60;96937.00;;;;8346932;28;20625;-64
2023/08/21 07:11:53;;;;;;;12.77;10.63;;;;;27.90;96940.00;;;;8338756;28;20232;-63
2023/08/21 07:15:56;;;;;;;16.10;10.63;;;;;28.30;96940.00;;;;8341873;28;20205;-64
2023/08/21 07:20:01;;;;;;;15.90;10.60;;;;;28.90;96940.00;;;;8338878;28;20288;-64
2023/08/21 07:24:07;;;;;;;12.70;10.07;;;;;29.50;96944.00;;;;8342678;28;20232;-64
2023/08/21 07:28:12;;;;;;;11.85;9.30;;;;;30.30;96947.00;;;;8335187;28;20246;-63
2023/08/21 07:32:16;;;;;;;13.52;10.55;;;;;31.00;96950.00;;;;8336343;28;20299;-64
2023/08/21 07:36:21;;;;;;;14.15;10.00;;;;;31.70;96950.00;;;;8343667;28;20205;-64
2023/08/21 07:40:25;;;;;;;13.73;10.27;;;;;32.40;96952.00;;;;8334515;28;20278;-65
2023/08/21 07:44:28;;;;;;;11.30;9.77;;;;;32.90;96958.00;;;;8339274;28;20375;-64
2023/08/21 07:48:32;;;;;;;16.05;9.70;;;;;33.10;96962.00;;;;8344124;28;20212;-64
2023/08/21 07:52:36;;;;;;;12.15;9.35;;;;;33.70;96957.00;;;;8332246;28;20192;-64
2023/08/21 07:56:41;;;;;;;12.85;10.15;;;;;33.80;96966.00;;;;8335076;28;20553;-64
2023/08/21 08:00:49;;;;;;;11.02;9.57;;;;;33.90;96961.00;;;;8332433;28;20681;-64
2023/08/21 08:04:53;;;;;;;12.30;9.43;;;;;34.20;96966.00;;;;8333448;28;20352;-65
2023/08/21 08:08:58;;;;;;;13.45;9.20;;;;;34.60;96966.00;;;;8327293;28;20221;-65
2023/08/21 08:13:02;;;;;;;11.93;9.50;;;;;34.50;96966.00;;;;8336180;28;20209;-65
2023/08/21 08:17:05;;;;;;;11.40;9.70;;;;;34.90;96970.00;;;;8334967;28;20656;-65
2023/08/21 08:21:10;;;;;;;13.60;9.45;;;;;34.70;96969.00;;;;8339264;28;20247;-65
2023/08/21 08:25:16;;;;;;;12.43;9.13;;;;;34.50;96975.00;;;;8336982;28;20231;-65
2023/08/21 08:29:20;;;;;;;11.88;8.95;;;;;34.90;96968.00;;;;8340347;28;20315;-65
2023/08/21 08:33:24;;;;;;;10.15;9.10;;;;;35.20;96970.00;;;;8316591;28;20202;-65
2023/08/21 08:37:27;;;;;;;11.98;8.75;;;;;35.60;96974.00;;;;8339946;28;20247;-64
2023/08/21 08:41:45;;;;;;;12.07;9.07;;;;;35.60;96980.00;;;;8328679;28;20299;-65
2023/08/21 08:45:55;;;;;;;14.43;9.13;;;;;35.60;96981.00;;;;8326045;28;20221;-65
2023/08/21 08:49:59;;;;;;;8.80;8.00;;;;;36.20;96982.00;;;;8335575;28;20193;-65
2023/08/21 08:54:19;;;;;;;9.98;8.10;;;;;36.30;96984.00;;;;8340656;28;20343;-65
2023/08/21 08:58:23;;;;;;;9.55;8.30;;;;;36.80;96984.00;;;;8317701;28;20205;-66
2023/08/21 09:02:31;;;;;;;9.57;8.40;;;;;37.10;96981.00;;;;8334020;28;20266;-65
2023/08/21 09:06:37;;;;;;;11.70;7.65;;;;;37.30;96983.00;;;;8334058;28;20544;-66
2023/08/21 09:10:45;;;;;;;10.18;7.70;;;;;37.70;96980.00;;;;8329525;28;20292;-65
2023/08/21 09:14:49;;;;;;;9.02;8.02;;;;;37.80;96982.00;;;;8330383;28;20204;-65
2023/08/21 09:18:57;;;;;;;13.27;8.43;;;;;37.90;96990.00;;;;8336503;28;20225;-66
2023/08/21 09:23:00;;;;;;;9.50;8.27;;;;;38.20;96986.00;;;;8337381;28;20239;-65
2023/08/21 09:27:14;;;;;;;12.77;8.57;;;;;38.70;96987.00;;;;8332422;28;20308;-64
2023/08/21 09:31:24;;;;;;;8.63;7.28;;;;;39.20;96981.00;;;;8331229;28;20227;-65
2023/08/21 09:35:35;;;;;;;15.88;7.47;;;;;39.40;96978.00;;;;8328962;28;20197;-65
2023/08/21 09:39:39;;;;;;;7.93;7.20;;;;;39.80;96981.00;;;;8338094;28;20209;-64
2023/08/21 09:43:43;;;;;;;8.93;7.15;;;;;39.90;96978.00;;;;8328902;28;20685;-65
2023/08/21 09:47:47;;;;;;;8.38;7.55;;;;;39.90;96984.00;;;;8335135;28;20669;-65
2023/08/21 09:51:56;;;;;;;8.00;7.13;;;;;40.10;96967.00;;;;8334395;28;20557;-65
2023/08/21 09:56:04;;;;;;;9.95;6.90;;;;;39.30;96975.00;;;;8333608;28;20212;-65
2023/08/21 10:00:15;;;;;;;9.88;7.28;;;;;38.60;96975.00;;;;8329630;28;20237;-65
2023/08/21 10:04:21;;;;;;;7.20;6.50;;;;;38.80;96969.00;;;;8329416;28;20259;-65
2023/08/21 10:08:31;;;;;;;10.60;6.85;;;;;39.10;96965.00;;;;8330388;28;20212;-65
2023/08/21 10:12:36;;;;;;;7.43;6.30;;;;;39.10;96969.00;;;;8326044;28;20224;-65
2023/08/21 10:16:42;;;;;;;10.40;6.55;;;;;38.60;96958.00;;;;8329587;28;20307;-65
2023/08/21 10:20:45;;;;;;;7.63;6.80;;;;;38.60;96953.00;;;;8328494;28;20228;-66
2023/08/21 10:24:51;;;;;;;8.02;6.93;;;;;39.40;96954.00;;;;8329876;28;20228;-65
2023/08/21 10:28:58;;;;;;;7.40;6.15;;;;;40.00;96953.00;;;;8329600;28;20193;-65
2023/08/21 10:33:04;;;;;;;9.45;6.85;;;;;39.90;96956.00;;;;8328519;28;20205;-66
2023/08/21 10:37:15;;;;;;;7.60;6.30;;;;;39.70;96951.00;;;;8325755;28;20491;-65
2023/08/21 10:41:27;;;;;;;10.88;6.72;;;;;40.10;96950.00;;;;8329267;28;20201;-65
2023/08/21 10:45:31;;;;;;;6.90;6.30;;;;;40.70;96955.00;;;;8329947;28;20217;-65
2023/08/21 10:49:34;;;;;;;6.80;6.05;;;;;40.90;96948.00;;;;8316336;28;20965;-66
2023/08/21 10:53:39;;;;;;;7.10;6.40;;;;;41.00;96946.00;;;;8316006;28;20207;-65
2023/08/21 10:57:44;;;;;;;7.80;6.53;;;;;41.30;96946.00;;;;8328659;28;20205;-66
2023/08/21 11:01:51;;;;;;;7.13;6.43;;;;;41.30;96940.00;;;;8331606;28;20196;-66
2023/08/21 11:06:02;;;;;;;14.77;6.55;;;;;41.50;96942.00;;;;8333004;28;20315;-65
2023/08/21 11:10:08;;;;;;;7.95;6.78;;;;;41.10;96944.00;;;;8338565;28;20197;-65
2023/08/21 11:14:15;;;;;;;9.38;6.47;;;;;40.60;96948.00;;;;8331060;28;21138;-65
2023/08/21 11:18:25;;;;;;;8.52;6.10;;;;;41.10;96941.00;;;;8338716;28;20225;-65
2023/08/21 11:22:32;;;;;;;13.48;6.72;;;;;40.90;96942.00;;;;8332535;28;20223;-66
2023/08/21 11:26:37;;;;;;;12.10;6.03;;;;;40.40;96942.00;;;;8329948;28;20652;-65
2023/08/21 11:30:43;;;;;;;7.38;6.05;;;;;40.50;96930.00;;;;8340381;28;20233;-65
2023/08/21 11:34:53;;;;;;;7.75;6.30;;;;;41.10;96937.00;;;;8327539;28;20296;-65
2023/08/21 11:38:59;;;;;;;8.10;6.40;;;;;41.20;96934.00;;;;8322377;28;20215;-65
2023/08/21 11:43:05;;;;;;;27.65;7.13;;;;;41.00;96929.00;;;;8329099;28;20265;-66
2023/08/21 11:47:18;;;;;;;10.02;6.38;;;;;40.60;96933.00;;;;8337427;28;20312;-65
2023/08/21 11:51:25;;;;;;;32.90;7.28;;;;;41.00;96925.00;;;;8339837;28;20629;-65
2023/08/21 11:55:31;;;;;;;10.68;6.35;;;;;40.90;96927.00;;;;8336347;28;20225;-66
2023/08/21 11:59:39;;;;;;;11.52;6.13;;;;;40.70;96927.00;;;;8331209;28;20225;-66
2023/08/21 12:03:45;;;;;;;80.78;9.30;;;;;39.70;96925.00;;;;8329094;28;20229;-66
2023/08/21 12:07:52;;;;;;;79.90;8.73;;;;;39.00;96932.00;;;;8335029;28;21013;-66
2023/08/21 12:11:57;;;;;;;8.93;6.78;;;;;38.80;96922.00;;;;8325277;28;20201;-66
2023/08/21 12:16:00;;;;;;;10.75;6.55;;;;;39.10;96920.00;;;;8330486;28;20296;-66
2023/08/21 12:20:11;;;;;;;7.88;6.25;;;;;39.30;96919.00;;;;8339427;28;20204;-66
2023/08/21 12:24:15;;;;;;;9.55;6.20;;;;;39.50;96906.00;;;;8332580;28;20308;-66
2023/08/21 12:28:21;;;;;;;13.38;6.47;;;;;39.30;96905.00;;;;8331706;28;20954;-65
2023/08/21 12:32:24;;;;;;;10.38;6.43;;;;;39.20;96908.00;;;;8336821;28;20201;-66
2023/08/21 12:36:29;;;;;;;10.07;6.28;;;;;39.10;96904.00;;;;8332508;28;20644;-66
2023/08/21 12:40:32;;;;;;;7.63;6.53;;;;;39.10;96906.00;;;;8325205;28;20196;-66
2023/08/21 12:44:35;;;;;;;8.02;6.88;;;;;39.10;96903.00;;;;8335238;28;20234;-66
2023/08/21 12:48:40;;;;;;;7.03;6.22;;;;;38.80;96896.00;;;;8329149;28;20196;-66
2023/08/21 12:52:45;;;;;;;8.15;6.47;;;;;38.50;96896.00;;;;8330517;28;20281;-66
2023/08/21 12:56:50;;;;;;;11.60;7.05;;;;;38.10;96899.00;;;;8332140;28;20197;-65
2023/08/21 13:00:56;;;;;;;10.70;6.35;;;;;37.60;96899.00;;;;8329207;28;20205;-66
2023/08/21 13:05:01;;;;;;;12.25;7.00;;;;;37.40;96889.00;;;;8335060;28;20232;-65
2023/08/21 13:09:06;;;;;;;11.00;6.75;;;;;37.50;96889.00;;;;8334528;28;20292;-66
2023/08/21 13:13:11;;;;;;;8.50;6.70;;;;;37.60;96884.00;;;;8332461;28;20997;-66
2023/08/21 13:17:23;;;;;;;10.68;6.05;;;;;37.80;96881.00;;;;8325677;28;20292;-66
2023/08/21 13:21:26;;;;;;;9.00;5.85;;;;;38.40;96875.00;;;;8340923;28;20284;-66
2023/08/21 13:25:30;;;;;;;11.07;6.00;;;;;38.90;96874.00;;;;8342711;28;20224;-66
2023/08/21 13:29:34;;;;;;;9.82;5.80;;;;;39.10;96872.00;;;;8338288;28;20240;-66
2023/08/21 13:33:45;;;;;;;9.82;5.95;;;;;39.50;96869.00;;;;8334601;28;20239;-66
2023/08/21 13:37:52;;;;;;;9.20;5.93;;;;;39.40;96869.00;;;;8340670;28;20205;-66
2023/08/21 13:41:56;;;;;;;11.88;5.57;;;;;38.90;96861.00;;;;8340101;28;20287;-66
2023/08/21 13:46:03;;;;;;;9.45;5.97;;;;;39.10;96861.00;;;;8322625;28;20506;-66
2023/08/21 13:50:10;;;;;;;7.05;5.80;;;;;39.50;96861.00;;;;8335735;28;20268;-66
2023/08/21 13:54:15;;;;;;;16.48;5.90;;;;;39.50;96855.00;;;;8322576;28;20256;-66
2023/08/21 13:58:22;;;;;;;9.00;5.38;;;;;39.20;96860.00;;;;8328703;28;20687;-66
2023/08/21 14:02:28;;;;;;;8.98;5.45;;;;;38.90;96860.00;;;;8338763;28;20238;-66
2023/08/21 14:06:33;;;;;;;9.57;5.53;;;;;38.30;96857.00;;;;8334103;28;20275;-66
2023/08/21 14:10:37;;;;;;;6.50;5.65;;;;;38.40;96857.00;;;;8320607;28;20288;-66
2023/08/21 14:14:41;;;;;;;9.60;5.40;;;;;38.20;96853.00;;;;8331677;28;20205;-66
2023/08/21 14:18:47;;;;;;;7.65;5.60;;;;;38.60;96850.00;;;;8329081;28;20228;-66
2023/08/21 14:22:50;;;;;;;18.20;5.47;;;;;38.60;96851.00;;;;8333035;28;20859;-66
2023/08/21 14:26:53;;;;;;;62.47;7.45;;;;;37.80;96850.00;;;;8309528;28;20240;-65
2023/08/21 14:31:02;;;;;;;24.00;6.00;;;;;37.50;96853.00;;;;8326057;28;20203;-65
2023/08/21 14:35:07;;;;;;;19.23;5.20;;;;;38.30;96846.00;;;;8333516;28;20203;-66
2023/08/21 14:39:11;;;;;;;12.73;6.25;;;;;38.40;96844.00;;;;8342888;28;20208;-66
2023/08/21 14:43:14;;;;;;;11.35;5.40;;;;;38.20;96843.00;;;;8343717;28;20300;-66
2023/08/21 14:47:20;;;;;;;7.28;5.70;;;;;37.90;96837.00;;;;8346331;28;20757;-66
2023/08/21 14:51:23;;;;;;;10.73;6.00;;;;;37.80;96849.00;;;;8338463;28;20247;-65
2023/08/21 14:55:28;;;;;;;68.50;9.23;;;;;37.20;96848.00;;;;8345031;28;20200;-66
2023/08/21 14:59:31;;;;;;;14.45;6.47;;;;;36.60;96847.00;;;;8341112;28;20193;-67
2023/08/21 15:03:35;;;;;;;23.05;7.05;;;;;36.30;96850.00;;;;8342902;28;20231;-65
2023/08/21 15:07:39;;;;;;;15.93;6.32;;;;;36.00;96853.00;;;;8339902;28;20232;-67
2023/08/21 15:11:46;;;;;;;11.70;5.82;;;;;36.00;96839.00;;;;8335185;28;20278;-65
2023/08/21 15:15:49;;;;;;;26.25;6.97;;;;;36.50;96829.00;;;;8336810;28;20201;-66
2023/08/21 15:19:54;;;;;;;9.43;6.57;;;;;37.10;96832.00;;;;8338265;28;20216;-66
2023/08/21 15:23:57;;;;;;;9.82;5.72;;;;;36.90;96831.00;;;;8342831;28;20212;-66
2023/08/21 15:28:06;;;;;;;8.88;6.10;;;;;36.80;96827.00;;;;8342182;28;20261;-65
2023/08/21 15:32:10;;;;;;;9.18;5.85;;;;;36.90;96822.00;;;;8343513;28;20968;-67
2023/08/21 15:36:16;;;;;;;12.63;6.32;;;;;37.00;96823.00;;;;8332018;28;20201;-66
2023/08/21 15:40:20;;;;;;;12.48;6.47;;;;;36.90;96830.00;;;;8343836;28;20710;-65
2023/08/21 15:44:23;;;;;;;12.63;5.72;;;;;36.80;96816.00;;;;8328310;28;20193;-66
2023/08/21 15:48:29;;;;;;;14.38;5.63;;;;;37.00;96815.00;;;;8327357;28;20228;-68
2023/08/21 15:52:35;;;;;;;9.38;5.68;;;;;37.10;96818.00;;;;8328341;28;20219;-67
2023/08/21 15:56:40;;;;;;;9.35;5.88;;;;;36.90;96820.00;;;;8327822;28;20312;-68
2023/08/21 16:00:48;;;;;;;11.55;5.53;;;;;37.10;96814.00;;;;8329848;28;20229;-67
2023/08/21 16:04:51;;;;;;;11.07;5.72;;;;;37.10;96814.00;;;;8335496;28;20237;-68
2023/08/21 16:08:58;;;;;;;11.27;6.13;;;;;36.90;96814.00;;;;8339006;28;20207;-68
2023/08/21 16:13:04;;;;;;;10.55;5.72;;;;;37.00;96804.00;;;;8342005;28;20287;-67
2023/08/21 16:17:10;;;;;;;25.63;6.60;;;;;37.50;96806.00;;;;8331593;28;20227;-67
2023/08/21 16:21:13;;;;;;;16.67;5.75;;;;;37.80;96800.00;;;;8334261;28;20193;-67
2023/08/21 16:25:22;;;;;;;11.73;6.43;;;;;38.00;96795.00;;;;8329531;28;20239;-67
2023/08/21 16:29:28;;;;;;;12.63;5.60;;;;;38.20;96799.00;;;;8322889;28;20206;-66
2023/08/21 16:33:35;;;;;;;8.40;5.80;;;;;38.10;96804.00;;;;8335471;28;20761;-66
2023/08/21 16:37:39;;;;;;;10.48;5.97;;;;;37.90;96791.00;;;;8332442;28;20298;-66
2023/08/21 16:41:45;;;;;;;14.25;5.93;;;;;37.70;96787.00;;;;8345408;28;20199;-66
2023/08/21 16:45:49;;;;;;;25.42;6.50;;;;;37.80;96792.00;;;;8319483;28;20225;-65
2023/08/21 16:49:52;;;;;;;14.93;6.45;;;;;38.20;96788.00;;;;8322349;28;20681;-65
2023/08/21 16:53:56;;;;;;;12.52;5.85;;;;;38.40;96783.00;;;;8332413;28;21075;-65
2023/08/21 16:58:04;;;;;;;13.32;6.40;;;;;38.30;96791.00;;;;8325875;28;20288;-65
2023/08/21 17:02:07;;;;;;;15.07;6.35;;;;;38.10;96778.00;;;;8334752;28;20200;-65
2023/08/21 17:06:14;;;;;;;7.93;5.63;;;;;37.70;96787.00;;;;8335518;28;20304;-65
2023/08/21 17:10:24;;;;;;;11.15;6.40;;;;;37.30;96789.00;;;;8336938;28;20200;-66
2023/08/21 17:14:29;;;;;;;12.30;6.35;;;;;36.90;96789.00;;;;8330316;28;20226;-65
2023/08/21 17:18:32;;;;;;;21.92;6.75;;;;;36.60;96785.00;;;;8331612;28;20197;-65
2023/08/21 17:22:37;;;;;;;13.35;6.43;;;;;36.30;96792.00;;;;8325411;28;20229;-66
2023/08/21 17:26:40;;;;;;;12.50;6.35;;;;;35.60;96791.00;;;;8330592;28;20244;-66
2023/08/21 17:30:44;;;;;;;17.08;7.07;;;;;35.00;96794.00;;;;8335835;28;20630;-66
2023/08/21 17:34:48;;;;;;;13.85;6.55;;;;;34.40;96793.00;;;;8326599;28;20235;-66
2023/08/21 17:38:51;;;;;;;14.52;7.03;;;;;33.90;96801.00;;;;8331236;28;20237;-66
2023/08/21 17:42:54;;;;;;;11.98;6.88;;;;;33.50;96786.00;;;;8328875;28;20605;-66
2023/08/21 17:47:04;;;;;;;15.32;7.13;;;;;33.20;96794.00;;;;8330670;28;20221;-66
2023/08/21 17:51:10;;;;;;;19.58;7.03;;;;;32.80;96793.00;;;;8332302;28;20197;-66
2023/08/21 17:55:13;;;;;;;9.82;6.55;;;;;32.50;96794.00;;;;8333238;28;20200;-66
2023/08/21 17:59:17;;;;;;;13.30;7.18;;;;;32.20;96790.00;;;;8332715;28;20234;-66
2023/08/21 18:03:21;;;;;;;14.15;6.75;;;;;31.90;96800.00;;;;8326530;28;20229;-66
2023/08/21 18:07:27;;;;;;;12.77;7.60;;;;;31.60;96802.00;;;;8341200;28;20278;-66
2023/08/21 18:11:31;;;;;;;10.27;6.97;;;;;31.40;96798.00;;;;8329413;28;20233;-66
2023/08/21 18:15:34;;;;;;;10.85;7.43;;;;;31.10;96801.00;;;;8326477;28;20198;-67
2023/08/21 18:19:40;;;;;;;16.80;7.30;;;;;30.90;96800.00;;;;8330865;28;20740;-67
2023/08/21 18:23:49;;;;;;;17.17;7.32;;;;;30.60;96804.00;;;;8335215;28;20201;-67
2023/08/21 18:27:52;;;;;;;15.45;7.55;;;;;30.50;96810.00;;;;8322324;28;20613;-67
2023/08/21 18:31:58;;;;;;;11.93;6.47;;;;;30.40;96811.00;;;;8334759;28;20233;-66
2023/08/21 18:36:03;;;;;;;8.15;6.80;;;;;30.20;96812.00;;;;8329364;28;20205;-66
2023/08/21 18:40:08;;;;;;;15.52;7.43;;;;;30.10;96819.00;;;;8332491;28;20725;-67
2023/08/21 18:44:12;;;;;;;13.20;7.47;;;;;29.90;96821.00;;;;8326736;28;20204;-67
2023/08/21 18:48:15;;;;;;;14.15;8.27;;;;;29.70;96833.00;;;;8329517;28;20493;-67
2023/08/21 18:52:22;;;;;;;9.80;7.57;;;;;29.40;96826.00;;;;8333723;28;20296;-67
2023/08/21 18:56:25;;;;;;;9.75;7.10;;;;;29.20;96835.00;;;;8330443;28;20201;-68
2023/08/21 19:00:30;;;;;;;11.95;7.05;;;;;29.20;96830.00;;;;8323008;28;20201;-68
2023/08/21 19:04:33;;;;;;;15.57;7.72;;;;;29.00;96828.00;;;;8326195;28;21057;-68
2023/08/21 19:08:39;;;;;;;13.95;7.82;;;;;28.70;96833.00;;;;8330943;28;20315;-67
2023/08/21 19:12:43;;;;;;;17.50;8.65;;;;;28.40;96828.00;;;;8329108;28;20201;-67
2023/08/21 19:16:52;;;;;;;14.38;8.52;;;;;28.10;96835.00;;;;8331846;28;20201;-65
2023/08/21 19:21:00;;;;;;;12.60;8.05;;;;;27.90;96833.00;;;;8326227;28;20282;-67
2023/08/21 19:25:12;;;;;;;10.15;8.02;;;;;27.70;96835.00;;;;8333767;28;20343;-67
2023/08/21 19:29:15;;;;;;;13.32;8.15;;;;;27.50;96833.00;;;;8334881;28;20263;-67
2023/08/21 19:33:23;;;;;;;9.85;7.97;;;;;27.30;96828.00;;;;8333894;28;20235;-66
2023/08/21 19:37:30;;;;;;;12.27;8.38;;;;;27.20;96839.00;;;;8334534;28;20239;-67
2023/08/21 19:41:42;;;;;;;15.07;8.25;;;;;27.10;96837.00;;;;8335148;28;20205;-67
2023/08/21 19:45:54;;;;;;;15.32;8.40;;;;;27.00;96841.00;;;;8335516;28;20200;-68
2023/08/21 19:49:57;;;;;;;14.10;8.63;;;;;26.90;96827.00;;;;8330271;28;20232;-66
2023/08/21 19:54:00;;;;;;;17.05;9.23;;;;;26.80;96833.00;;;;8329068;28;20244;-67
2023/08/21 19:58:06;;;;;;;12.95;8.68;;;;;26.70;96833.00;;;;8330558;28;20203;-67
2023/08/21 20:02:09;;;;;;;19.20;8.45;;;;;26.60;96831.00;;;;8338344;28;20633;-66
2023/08/21 20:06:14;;;;;;;12.40;8.50;;;;;26.50;96830.00;;;;8339917;28;20201;-67
2023/08/21 20:10:22;;;;;;;13.77;8.43;;;;;26.50;96833.00;;;;8331560;28;20193;-68